sensor_id;sensor_type;location;lat;lon;timestamp;pressure;altitude;pressure_sealevel;temperature;humidity
31088;BME280;17745;55.914;37.554;2022-08-19T03:24:49;99884.78;;;22.05;46.38
31088;BME280;17745;55.914;37.554;2022-08-19T03:27:54;99895.56;;;22.14;46.27
31088;BME280;17745;55.914;37.554;2022-08-19T05:54:21;99908.91;;;26.72;38.65
31088;BME280;17745;55.914;37.554;2022-08-19T05:57:20;99909.34;;;26.74;38.48
31088;BME280;17745;55.914;37.554;2022-08-19T06:00:16;99909.66;;;26.73;38.54
31088;BME280;17745;55.914;37.554;2022-08-19T06:02:44;99908.78;;;26.68;38.46
31088;BME280;17745;55.914;37.554;2022-08-19T06:05:19;99909.84;;;26.64;38.54
31088;BME280;17745;55.914;37.554;2022-08-19T06:07:51;99917.03;;;26.72;38.43
31088;BME280;17745;55.914;37.554;2022-08-19T06:14:05;99912.06;;;26.87;38.07
31088;BME280;17745;55.914;37.554;2022-08-19T07:04:46;99923.38;;;28.14;36.80
31088;BME280;17745;55.914;37.554;2022-08-19T07:07:30;99919.44;;;28.27;36.72
31088;BME280;17745;55.914;37.554;2022-08-19T07:13:05;99914.66;;;28.60;36.25
31088;BME280;17745;55.914;37.554;2022-08-19T07:15:37;99911.50;;;28.77;36.00
31088;BME280;17745;55.914;37.554;2022-08-19T07:18:16;99902.63;;;29.00;35.86
31088;BME280;17745;55.914;37.554;2022-08-19T07:59:10;99921.53;;;29.79;31.61
31088;BME280;17745;55.914;37.554;2022-08-19T08:09:29;99931.19;;;29.73;31.17
31088;BME280;17745;55.914;37.554;2022-08-19T08:12:37;99923.25;;;29.91;31.15
31088;BME280;17745;55.914;37.554;2022-08-19T08:19:12;99930.44;;;30.26;30.64
31088;BME280;17745;55.914;37.554;2022-08-19T08:22:00;99928.72;;;30.45;30.52
31088;BME280;17745;55.914;37.554;2022-08-19T08:25:16;99931.47;;;30.45;30.13
31088;BME280;17745;55.914;37.554;2022-08-19T08:28:35;99928.91;;;30.59;29.65
31088;BME280;17745;55.914;37.554;2022-08-19T08:31:30;99930.06;;;30.89;29.05
31088;BME280;17745;55.914;37.554;2022-08-19T08:34:03;99933.84;;;31.15;28.94
31088;BME280;17745;55.914;37.554;2022-08-19T08:47:34;99954.87;;;31.45;28.42
31088;BME280;17745;55.914;37.554;2022-08-19T08:54:30;99938.75;;;31.77;28.60
31088;BME280;17745;55.914;37.554;2022-08-19T09:01:12;99933.91;;;31.63;28.14
31088;BME280;17745;55.914;37.554;2022-08-19T10:00:23;99948.25;;;31.12;29.29
31088;BME280;17745;55.914;37.554;2022-08-19T10:06:32;99944.03;;;31.18;29.19
31088;BME280;17745;55.914;37.554;2022-08-19T10:48:51;99970.06;;;31.04;24.64
31088;BME280;17745;55.914;37.554;2022-08-19T10:51:27;99965.09;;;31.14;24.32
31088;BME280;17745;55.914;37.554;2022-08-19T14:59:31;99970.37;;;33.01;22.72
31088;BME280;17745;55.914;37.554;2022-08-19T15:11:47;99971.22;;;34.25;21.84
31088;BME280;17745;55.914;37.554;2022-08-19T15:14:17;99969.28;;;34.29;21.72
31088;BME280;17745;55.914;37.554;2022-08-19T15:23:38;99974.00;;;33.49;22.47
31088;BME280;17745;55.914;37.554;2022-08-19T15:26:09;99980.09;;;32.88;23.03
31088;BME280;17745;55.914;37.554;2022-08-19T15:28:42;99976.78;;;32.49;23.37
31088;BME280;17745;55.914;37.554;2022-08-19T15:31:12;99978.47;;;32.09;23.81
31088;BME280;17745;55.914;37.554;2022-08-19T15:33:50;99984.81;;;31.72;24.20
31088;BME280;17745;55.914;37.554;2022-08-19T15:36:24;99989.56;;;31.33;24.68
31088;BME280;17745;55.914;37.554;2022-08-19T15:38:59;99988.16;;;31.13;24.74
31088;BME280;17745;55.914;37.554;2022-08-19T15:41:30;99983.75;;;30.74;25.36
31088;BME280;17745;55.914;37.554;2022-08-19T15:44:01;99993.13;;;30.46;25.69
31088;BME280;17745;55.914;37.554;2022-08-19T15:46:40;99994.75;;;30.23;26.05
31088;BME280;17745;55.914;37.554;2022-08-19T15:49:12;99990.66;;;30.10;26.26
31088;BME280;17745;55.914;37.554;2022-08-19T15:51:48;99988.97;;;30.02;26.46
31088;BME280;17745;55.914;37.554;2022-08-19T15:54:27;99997.06;;;29.98;26.51
31088;BME280;17745;55.914;37.554;2022-08-19T15:56:59;100008.78;;;29.99;26.72
31088;BME280;17745;55.914;37.554;2022-08-19T15:59:46;100004.25;;;29.83;26.77
31088;BME280;17745;55.914;37.554;2022-08-19T16:02:38;100020.00;;;29.70;26.95
31088;BME280;17745;55.914;37.554;2022-08-19T16:05:26;100020.47;;;29.52;27.14
31088;BME280;17745;55.914;37.554;2022-08-19T16:08:18;100021.19;;;29.30;27.38
31088;BME280;17745;55.914;37.554;2022-08-19T16:10:56;100025.06;;;29.09;27.64
31088;BME280;17745;55.914;37.554;2022-08-19T16:13:26;100023.56;;;28.92;27.95
31088;BME280;17745;55.914;37.554;2022-08-19T16:15:58;100026.22;;;28.72;28.06
31088;BME280;17745;55.914;37.554;2022-08-19T16:18:31;100029.44;;;28.58;28.28
31088;BME280;17745;55.914;37.554;2022-08-19T16:21:05;100027.88;;;28.41;28.49
31088;BME280;17745;55.914;37.554;2022-08-19T16:23:36;100025.16;;;28.25;28.72
31088;BME280;17745;55.914;37.554;2022-08-19T16:26:10;100026.28;;;28.08;28.97
31088;BME280;17745;55.914;37.554;2022-08-19T16:28:40;100022.06;;;27.94;29.20
31088;BME280;17745;55.914;37.554;2022-08-19T16:31:12;100030.31;;;27.82;29.25
31088;BME280;17745;55.914;37.554;2022-08-19T23:08:55;100216.00;;;21.05;34.39
31088;BME280;17745;55.914;37.554;2022-08-19T23:18:04;100205.81;;;20.88;34.79
31088;BME280;17745;55.914;37.554;2022-08-19T23:21:02;100218.56;;;20.82;34.77
